Gujranwala Weather



Gujranwala's Current Weather

Temprature 22.03o broken clouds

broken clouds

Rain: 0 %

Min Temprature22.03o
Max Temprature22.03o
Humidity42
Wind Speed4.32 m/h
Sun Rise05:00:51
Sun Set18:59:35
Current Time: 24-May-2022 08:43:02
Lat/Lon: 32.1617, 74.1883




Gujranwala's Geo Location



Gujranwala's Weather Forecast

Time Overall Temp Min Temp Max Temp Humidity Wind Speed Rain
24-May-2022 (Tue)
11:00:00 broken clouds 24.900 24.900 30.650 43 4.53 m/h 0 %
14:00:00 scattered clouds 29.740 29.740 33.600 31 1.3 m/h 0 %
17:00:00 few clouds 34.010 34.010 34.010 21 2.19 m/h 0 %
20:00:00 clear sky 31.010 31.010 31.010 25 1.23 m/h 0 %
23:00:00 clear sky 29.120 29.120 29.120 27 2.41 m/h 0 %
25-May-2022 (Wed)
02:00:00 clear sky 27.790 27.790 27.790 31 1.97 m/h 0 %
05:00:00 clear sky 26.480 26.480 26.480 33 1.53 m/h 0 %
08:00:00 clear sky 31.860 31.860 31.860 24 2.08 m/h 0 %
11:00:00 clear sky 36.880 36.880 36.880 18 1.36 m/h 0 %
14:00:00 clear sky 39.000 39.000 39.000 15 1.36 m/h 0 %
17:00:00 clear sky 38.900 38.900 38.900 14 1.38 m/h 0 %
20:00:00 clear sky 34.950 34.950 34.950 19 2.75 m/h 0 %
23:00:00 clear sky 32.640 32.640 32.640 23 2.86 m/h 0 %
26-May-2022 (Thu)
02:00:00 clear sky 31.160 31.160 31.160 25 0.63 m/h 0 %
05:00:00 clear sky 29.640 29.640 29.640 27 1.7 m/h 0 %
08:00:00 clear sky 34.930 34.930 34.930 20 2.6 m/h 0 %
11:00:00 clear sky 39.730 39.730 39.730 14 3.09 m/h 0 %
14:00:00 clear sky 42.060 42.060 42.060 12 3.7 m/h 0 %
17:00:00 clear sky 41.760 41.760 41.760 12 4.12 m/h 0 %
20:00:00 clear sky 37.160 37.160 37.160 16 3.12 m/h 0 %
23:00:00 clear sky 35.310 35.310 35.310 17 2.31 m/h 0 %
27-May-2022 (Fri)
02:00:00 clear sky 33.060 33.060 33.060 20 2.17 m/h 0 %
05:00:00 clear sky 30.790 30.790 30.790 23 0.87 m/h 0 %
08:00:00 clear sky 37.010 37.010 37.010 17 3.05 m/h 0 %
11:00:00 clear sky 42.600 42.600 42.600 11 3.52 m/h 0 %
14:00:00 clear sky 44.990 44.990 44.990 8 2.66 m/h 0 %
17:00:00 clear sky 44.800 44.800 44.800 8 2.65 m/h 0 %
20:00:00 clear sky 39.600 39.600 39.600 13 2.71 m/h 0 %
23:00:00 clear sky 37.070 37.070 37.070 20 2.55 m/h 0 %
28-May-2022 (Sat)
02:00:00 clear sky 33.880 33.880 33.880 20 3.99 m/h 0 %
05:00:00 clear sky 32.110 32.110 32.110 24 4.85 m/h 0 %
08:00:00 clear sky 37.770 37.770 37.770 20 6.17 m/h 0 %
11:00:00 clear sky 43.210 43.210 43.210 16 6.51 m/h 0 %
14:00:00 clear sky 45.640 45.640 45.640 8 7.14 m/h 0 %
17:00:00 clear sky 44.700 44.700 44.700 7 6.18 m/h 0 %
20:00:00 clear sky 38.760 38.760 38.760 12 4.13 m/h 0 %
23:00:00 clear sky 34.150 34.150 34.150 26 7.79 m/h 0 %
29-May-2022 (Sun)
02:00:00 clear sky 32.200 32.200 32.200 31 6.01 m/h 0 %
05:00:00 clear sky 31.070 31.070 31.070 34 6.19 m/h 0 %
08:00:00 clear sky 34.950 34.950 34.950 31 7.59 m/h 0 %

Famous Cities (61)